sensor_id;sensor_type;location;lat;lon;timestamp;pressure;altitude;pressure_sealevel;temperature;humidity
16544;BME280;8384;47.996;7.786;2022-09-12T00:00:42;98807.22;;;12.43;96.63
16544;BME280;8384;47.996;7.786;2022-09-12T00:03:08;98830.78;;;12.44;96.04
16544;BME280;8384;47.996;7.786;2022-09-12T00:05:34;98841.44;;;12.41;97.73
16544;BME280;8384;47.996;7.786;2022-09-12T00:08:04;98847.78;;;12.57;97.42
16544;BME280;8384;47.996;7.786;2022-09-12T00:10:29;98826.63;;;12.32;98.43
16544;BME280;8384;47.996;7.786;2022-09-12T00:12:54;98832.41;;;12.35;98.18
16544;BME280;8384;47.996;7.786;2022-09-12T00:15:20;98821.97;;;12.27;98.56
16544;BME280;8384;47.996;7.786;2022-09-12T00:17:45;98840.03;;;12.23;99.37
16544;BME280;8384;47.996;7.786;2022-09-12T00:20:10;98838.72;;;12.30;98.30
16544;BME280;8384;47.996;7.786;2022-09-12T00:22:36;98816.69;;;12.10;98.92
16544;BME280;8384;47.996;7.786;2022-09-12T00:25:02;98837.28;;;12.23;98.42
16544;BME280;8384;47.996;7.786;2022-09-12T00:27:28;98836.97;;;12.09;100.00
16544;BME280;8384;47.996;7.786;2022-09-12T00:29:53;98843.69;;;11.80;100.00
16544;BME280;8384;47.996;7.786;2022-09-12T00:32:19;98830.25;;;11.74;100.00
16544;BME280;8384;47.996;7.786;2022-09-12T00:34:44;98836.28;;;11.76;100.00
16544;BME280;8384;47.996;7.786;2022-09-12T00:37:09;98823.66;;;11.69;100.00
16544;BME280;8384;47.996;7.786;2022-09-12T00:39:35;98841.00;;;11.85;100.00
16544;BME280;8384;47.996;7.786;2022-09-12T00:42:00;98837.94;;;11.82;100.00
16544;BME280;8384;47.996;7.786;2022-09-12T00:47:00;98819.53;;;11.62;100.00
16544;BME280;8384;47.996;7.786;2022-09-12T00:52:10;98836.59;;;11.84;100.00
16544;BME280;8384;47.996;7.786;2022-09-12T00:54:43;98826.44;;;11.85;100.00
16544;BME280;8384;47.996;7.786;2022-09-12T00:57:11;98788.28;;;11.58;100.00
16544;BME280;8384;47.996;7.786;2022-09-12T00:59:50;98832.84;;;12.01;100.00
16544;BME280;8384;47.996;7.786;2022-09-12T01:02:17;98817.44;;;11.95;99.37
16544;BME280;8384;47.996;7.786;2022-09-12T01:04:43;98806.19;;;11.86;99.36
16544;BME280;8384;47.996;7.786;2022-09-12T01:07:08;98809.75;;;11.81;99.39
16544;BME280;8384;47.996;7.786;2022-09-12T01:09:35;98802.31;;;11.72;99.39
16544;BME280;8384;47.996;7.786;2022-09-12T01:12:02;98802.63;;;11.80;99.50
16544;BME280;8384;47.996;7.786;2022-09-12T01:14:28;98825.75;;;12.05;99.13
16544;BME280;8384;47.996;7.786;2022-09-12T01:16:54;98811.66;;;11.81;99.46
16544;BME280;8384;47.996;7.786;2022-09-12T01:22:48;98822.59;;;11.76;100.00
16544;BME280;8384;47.996;7.786;2022-09-12T01:25:33;98818.50;;;11.78;100.00
16544;BME280;8384;47.996;7.786;2022-09-12T01:30:55;98814.34;;;11.65;100.00
16544;BME280;8384;47.996;7.786;2022-09-12T01:33:33;98824.78;;;11.79;100.00
16544;BME280;8384;47.996;7.786;2022-09-12T01:36:46;98819.59;;;11.77;100.00
16544;BME280;8384;47.996;7.786;2022-09-12T01:39:26;98802.00;;;11.68;100.00
16544;BME280;8384;47.996;7.786;2022-09-12T01:42:14;98788.88;;;11.65;100.00
16544;BME280;8384;47.996;7.786;2022-09-12T01:47:11;98784.16;;;11.55;100.00
16544;BME280;8384;47.996;7.786;2022-09-12T01:50:00;98800.66;;;11.70;99.97
16544;BME280;8384;47.996;7.786;2022-09-12T01:52:37;98800.34;;;11.67;100.00
16544;BME280;8384;47.996;7.786;2022-09-12T01:57:38;98786.13;;;11.60;100.00
16544;BME280;8384;47.996;7.786;2022-09-12T02:00:08;98774.91;;;11.66;99.90
16544;BME280;8384;47.996;7.786;2022-09-12T02:02:41;98790.06;;;11.90;99.57
16544;BME280;8384;47.996;7.786;2022-09-12T02:05:15;98787.03;;;11.91;99.69
16544;BME280;8384;47.996;7.786;2022-09-12T02:07:46;98785.13;;;11.92;99.00
16544;BME280;8384;47.996;7.786;2022-09-12T02:10:15;98777.72;;;11.92;99.05
16544;BME280;8384;47.996;7.786;2022-09-12T02:12:49;98774.50;;;12.00;99.01
16544;BME280;8384;47.996;7.786;2022-09-12T02:15:18;98769.31;;;12.09;98.23
16544;BME280;8384;47.996;7.786;2022-09-12T02:17:48;98775.06;;;12.08;97.85
16544;BME280;8384;47.996;7.786;2022-09-12T02:20:26;98756.94;;;11.96;98.27
16544;BME280;8384;47.996;7.786;2022-09-12T02:22:54;98773.41;;;12.07;97.92
16544;BME280;8384;47.996;7.786;2022-09-12T02:25:22;98762.09;;;11.93;98.16
16544;BME280;8384;47.996;7.786;2022-09-12T02:28:03;98777.25;;;12.11;97.83
16544;BME280;8384;47.996;7.786;2022-09-12T02:30:36;98772.88;;;12.05;97.58
16544;BME280;8384;47.996;7.786;2022-09-12T02:38:15;98765.41;;;11.26;100.00
16544;BME280;8384;47.996;7.786;2022-09-12T02:40:43;98784.31;;;11.28;100.00
16544;BME280;8384;47.996;7.786;2022-09-12T02:43:08;98789.25;;;11.31;100.00
16544;BME280;8384;47.996;7.786;2022-09-12T02:45:34;98786.19;;;11.22;100.00
16544;BME280;8384;47.996;7.786;2022-09-12T02:50:28;98790.63;;;11.33;100.00
16544;BME280;8384;47.996;7.786;2022-09-12T02:52:54;98765.59;;;11.14;100.00
16544;BME280;8384;47.996;7.786;2022-09-12T02:55:25;98783.19;;;11.23;100.00
16544;BME280;8384;47.996;7.786;2022-09-12T02:57:50;98781.22;;;11.14;100.00
16544;BME280;8384;47.996;7.786;2022-09-12T03:00:16;98784.72;;;11.04;100.00
16544;BME280;8384;47.996;7.786;2022-09-12T03:02:59;98783.50;;;10.89;100.00
16544;BME280;8384;47.996;7.786;2022-09-12T03:05:55;98776.00;;;10.74;100.00
16544;BME280;8384;47.996;7.786;2022-09-12T03:08:59;98778.50;;;10.76;100.00
16544;BME280;8384;47.996;7.786;2022-09-12T03:17:00;98788.38;;;10.49;100.00
16544;BME280;8384;47.996;7.786;2022-09-12T03:25:11;98776.84;;;10.42;100.00
16544;BME280;8384;47.996;7.786;2022-09-12T03:28:10;98777.44;;;10.44;100.00
16544;BME280;8384;47.996;7.786;2022-09-12T03:30:38;98771.97;;;10.49;100.00
16544;BME280;8384;47.996;7.786;2022-09-12T03:33:05;98770.13;;;10.55;100.00
16544;BME280;8384;47.996;7.786;2022-09-12T03:35:30;98740.16;;;10.38;100.00
16544;BME280;8384;47.996;7.786;2022-09-12T03:37:55;98750.47;;;10.31;100.00
16544;BME280;8384;47.996;7.786;2022-09-12T03:40:21;98773.88;;;10.21;100.00
16544;BME280;8384;47.996;7.786;2022-09-12T03:42:46;98780.00;;;10.06;100.00
16544;BME280;8384;47.996;7.786;2022-09-12T03:45:11;98779.91;;;9.96;100.00
16544;BME280;8384;47.996;7.786;2022-09-12T03:47:37;98758.72;;;9.81;100.00
16544;BME280;8384;47.996;7.786;2022-09-12T03:50:03;98758.59;;;9.71;100.00
16544;BME280;8384;47.996;7.786;2022-09-12T03:52:28;98771.25;;;9.77;100.00
16544;BME280;8384;47.996;7.786;2022-09-12T03:54:54;98769.91;;;9.80;100.00
16544;BME280;8384;47.996;7.786;2022-09-12T03:57:19;98754.50;;;9.68;100.00
16544;BME280;8384;47.996;7.786;2022-09-12T03:59:44;98770.44;;;9.77;100.00
16544;BME280;8384;47.996;7.786;2022-09-12T04:02:10;98767.06;;;9.92;100.00
16544;BME280;8384;47.996;7.786;2022-09-12T04:04:39;98711.59;;;9.64;100.00
16544;BME280;8384;47.996;7.786;2022-09-12T04:07:04;98764.81;;;9.88;100.00
16544;BME280;8384;47.996;7.786;2022-09-12T04:09:29;98744.66;;;9.67;100.00
16544;BME280;8384;47.996;7.786;2022-09-12T04:11:54;98761.59;;;9.69;100.00
16544;BME280;8384;47.996;7.786;2022-09-12T04:14:20;98748.91;;;9.58;100.00
16544;BME280;8384;47.996;7.786;2022-09-12T04:16:45;98767.25;;;9.63;100.00
16544;BME280;8384;47.996;7.786;2022-09-12T04:19:10;98746.88;;;9.48;100.00
16544;BME280;8384;47.996;7.786;2022-09-12T04:21:36;98762.31;;;9.59;100.00
16544;BME280;8384;47.996;7.786;2022-09-12T04:24:01;98726.06;;;9.42;100.00
16544;BME280;8384;47.996;7.786;2022-09-12T04:26:26;98759.50;;;9.54;100.00
16544;BME280;8384;47.996;7.786;2022-09-12T04:28:54;98748.59;;;9.54;100.00
16544;BME280;8384;47.996;7.786;2022-09-12T04:31:22;98731.78;;;9.40;100.00
16544;BME280;8384;47.996;7.786;2022-09-12T04:33:57;98763.88;;;9.33;100.00
16544;BME280;8384;47.996;7.786;2022-09-12T04:36:25;98769.72;;;9.20;100.00
16544;BME280;8384;47.996;7.786;2022-09-12T04:38:51;98757.84;;;9.09;100.00
16544;BME280;8384;47.996;7.786;2022-09-12T04:41:21;98783.09;;;9.21;100.00
16544;BME280;8384;47.996;7.786;2022-09-12T04:43:49;98775.28;;;9.30;100.00
16544;BME280;8384;47.996;7.786;2022-09-12T04:46:16;98772.97;;;9.39;100.00
16544;BME280;8384;47.996;7.786;2022-09-12T04:48:44;98770.25;;;9.39;100.00
16544;BME280;8384;47.996;7.786;2022-09-12T04:51:15;98754.97;;;9.38;100.00
16544;BME280;8384;47.996;7.786;2022-09-12T04:53:41;98763.00;;;9.50;100.00
16544;BME280;8384;47.996;7.786;2022-09-12T04:56:09;98758.63;;;9.49;100.00
16544;BME280;8384;47.996;7.786;2022-09-12T04:58:35;98762.19;;;9.49;100.00
16544;BME280;8384;47.996;7.786;2022-09-12T05:01:08;98755.63;;;9.50;100.00
16544;BME280;8384;47.996;7.786;2022-09-12T05:03:34;98764.47;;;9.57;100.00
16544;BME280;8384;47.996;7.786;2022-09-12T05:06:03;98742.31;;;9.54;100.00
16544;BME280;8384;47.996;7.786;2022-09-12T05:08:29;98758.88;;;9.69;100.00
16544;BME280;8384;47.996;7.786;2022-09-12T05:10:54;98729.44;;;9.49;100.00
16544;BME280;8384;47.996;7.786;2022-09-12T05:13:19;98751.25;;;9.71;100.00
16544;BME280;8384;47.996;7.786;2022-09-12T05:15:56;98751.75;;;9.90;100.00
16544;BME280;8384;47.996;7.786;2022-09-12T05:18:22;98733.84;;;10.05;100.00
16544;BME280;8384;47.996;7.786;2022-09-12T05:20:47;98731.94;;;10.33;100.00
16544;BME280;8384;47.996;7.786;2022-09-12T05:23:13;98724.03;;;10.36;100.00
16544;BME280;8384;47.996;7.786;2022-09-12T05:25:38;98749.75;;;10.68;100.00
16544;BME280;8384;47.996;7.786;2022-09-12T05:28:03;98753.94;;;10.81;100.00
16544;BME280;8384;47.996;7.786;2022-09-12T05:30:28;98723.81;;;10.76;100.00
16544;BME280;8384;47.996;7.786;2022-09-12T05:32:54;98752.94;;;10.98;100.00
16544;BME280;8384;47.996;7.786;2022-09-12T05:35:20;98748.84;;;11.00;100.00
16544;BME280;8384;47.996;7.786;2022-09-12T05:37:45;98753.25;;;11.06;100.00
16544;BME280;8384;47.996;7.786;2022-09-12T05:40:10;98755.31;;;10.84;100.00
16544;BME280;8384;47.996;7.786;2022-09-12T05:42:37;98761.97;;;10.98;100.00
16544;BME280;8384;47.996;7.786;2022-09-12T05:45:03;98768.53;;;10.97;100.00
16544;BME280;8384;47.996;7.786;2022-09-12T05:47:28;98751.47;;;10.85;100.00
16544;BME280;8384;47.996;7.786;2022-09-12T05:49:53;98757.59;;;10.59;100.00
16544;BME280;8384;47.996;7.786;2022-09-12T05:52:19;98777.88;;;10.69;100.00
16544;BME280;8384;47.996;7.786;2022-09-12T05:54:44;98779.81;;;10.73;100.00
16544;BME280;8384;47.996;7.786;2022-09-12T05:57:09;98783.50;;;10.84;100.00
16544;BME280;8384;47.996;7.786;2022-09-12T05:59:35;98779.47;;;10.97;100.00
16544;BME280;8384;47.996;7.786;2022-09-12T06:02:00;98775.41;;;11.05;100.00
16544;BME280;8384;47.996;7.786;2022-09-12T06:04:25;98759.78;;;11.00;100.00
16544;BME280;8384;47.996;7.786;2022-09-12T06:06:52;98774.72;;;10.87;100.00
16544;BME280;8384;47.996;7.786;2022-09-12T06:09:17;98780.06;;;11.04;100.00
16544;BME280;8384;47.996;7.786;2022-09-12T06:11:44;98791.59;;;11.12;100.00
16544;BME280;8384;47.996;7.786;2022-09-12T06:14:11;98797.31;;;11.05;100.00
16544;BME280;8384;47.996;7.786;2022-09-12T06:16:38;98807.34;;;10.94;100.00
16544;BME280;8384;47.996;7.786;2022-09-12T06:19:06;98804.63;;;10.99;100.00
16544;BME280;8384;47.996;7.786;2022-09-12T06:21:32;98810.59;;;11.29;100.00
16544;BME280;8384;47.996;7.786;2022-09-12T06:24:01;98808.47;;;11.46;100.00
16544;BME280;8384;47.996;7.786;2022-09-12T06:26:27;98782.75;;;11.47;100.00
16544;BME280;8384;47.996;7.786;2022-09-12T06:28:54;98811.88;;;11.69;100.00
16544;BME280;8384;47.996;7.786;2022-09-12T06:31:22;98812.81;;;11.95;100.00
16544;BME280;8384;47.996;7.786;2022-09-12T06:33:50;98816.88;;;11.93;100.00
16544;BME280;8384;47.996;7.786;2022-09-12T06:36:21;98810.31;;;11.83;100.00
16544;BME280;8384;47.996;7.786;2022-09-12T06:38:48;98821.56;;;11.92;100.00
16544;BME280;8384;47.996;7.786;2022-09-12T06:41:17;98802.63;;;11.80;100.00
16544;BME280;8384;47.996;7.786;2022-09-12T06:43:42;98795.78;;;11.83;100.00
16544;BME280;8384;47.996;7.786;2022-09-12T06:46:09;98809.78;;;11.97;100.00
16544;BME280;8384;47.996;7.786;2022-09-12T06:48:35;98804.41;;;12.12;100.00
16544;BME280;8384;47.996;7.786;2022-09-12T06:51:06;98809.38;;;12.31;100.00
16544;BME280;8384;47.996;7.786;2022-09-12T06:53:33;98806.38;;;12.43;100.00
16544;BME280;8384;47.996;7.786;2022-09-12T06:56:22;98814.34;;;12.60;99.71
16544;BME280;8384;47.996;7.786;2022-09-12T06:58:49;98807.22;;;12.80;98.81
16544;BME280;8384;47.996;7.786;2022-09-12T07:01:16;98804.44;;;13.00;98.38
16544;BME280;8384;47.996;7.786;2022-09-12T07:03:46;98779.50;;;12.97;98.29
16544;BME280;8384;47.996;7.786;2022-09-12T07:06:14;98809.63;;;13.33;97.33
16544;BME280;8384;47.996;7.786;2022-09-12T07:08:40;98807.44;;;13.14;97.32
16544;BME280;8384;47.996;7.786;2022-09-12T07:13:52;98787.09;;;13.46;97.41
16544;BME280;8384;47.996;7.786;2022-09-12T07:16:17;98797.22;;;13.56;95.58
16544;BME280;8384;47.996;7.786;2022-09-12T07:18:43;98799.31;;;13.80;95.29
16544;BME280;8384;47.996;7.786;2022-09-12T07:21:12;98788.81;;;13.98;93.33
16544;BME280;8384;47.996;7.786;2022-09-12T07:23:38;98787.84;;;14.23;90.99
16544;BME280;8384;47.996;7.786;2022-09-12T07:26:05;98786.16;;;14.32;90.79
16544;BME280;8384;47.996;7.786;2022-09-12T07:28:31;98790.69;;;14.52;88.75
16544;BME280;8384;47.996;7.786;2022-09-12T07:31:05;98790.38;;;14.94;85.13
16544;BME280;8384;47.996;7.786;2022-09-12T07:33:31;98782.56;;;14.72;85.32
16544;BME280;8384;47.996;7.786;2022-09-12T07:36:02;98793.25;;;14.78;85.13
16544;BME280;8384;47.996;7.786;2022-09-12T07:38:29;98791.03;;;15.10;83.71
16544;BME280;8384;47.996;7.786;2022-09-12T07:40:54;98800.09;;;15.40;81.99
16544;BME280;8384;47.996;7.786;2022-09-12T07:43:20;98787.63;;;15.72;80.08
16544;BME280;8384;47.996;7.786;2022-09-12T07:45:45;98737.06;;;15.82;77.54
16544;BME280;8384;47.996;7.786;2022-09-12T07:48:11;98790.00;;;16.03;78.43
16544;BME280;8384;47.996;7.786;2022-09-12T07:50:36;98768.66;;;16.14;78.32
16544;BME280;8384;47.996;7.786;2022-09-12T07:53:03;98792.84;;;16.36;78.44
16544;BME280;8384;47.996;7.786;2022-09-12T07:55:29;98794.41;;;16.42;78.25
16544;BME280;8384;47.996;7.786;2022-09-12T07:57:54;98762.22;;;16.18;77.75
16544;BME280;8384;47.996;7.786;2022-09-12T08:00:20;98789.09;;;16.65;75.97
16544;BME280;8384;47.996;7.786;2022-09-12T08:02:50;98793.53;;;16.80;75.10
16544;BME280;8384;47.996;7.786;2022-09-12T08:05:16;98789.00;;;16.89;75.12
16544;BME280;8384;47.996;7.786;2022-09-12T08:07:41;98783.22;;;17.05;74.94
16544;BME280;8384;47.996;7.786;2022-09-12T08:10:06;98800.16;;;17.31;73.61
16544;BME280;8384;47.996;7.786;2022-09-12T08:12:32;98776.94;;;17.32;73.60
16544;BME280;8384;47.996;7.786;2022-09-12T08:14:58;98781.31;;;17.61;72.83
16544;BME280;8384;47.996;7.786;2022-09-12T08:17:24;98783.69;;;18.10;70.48
16544;BME280;8384;47.996;7.786;2022-09-12T08:19:49;98793.91;;;17.95;69.45
16544;BME280;8384;47.996;7.786;2022-09-12T08:22:15;98768.25;;;17.53;70.43
16544;BME280;8384;47.996;7.786;2022-09-12T08:24:40;98793.41;;;17.65;70.85
16544;BME280;8384;47.996;7.786;2022-09-12T08:27:06;98788.28;;;17.45;72.88
16544;BME280;8384;47.996;7.786;2022-09-12T08:29:32;98797.78;;;17.94;70.27
16544;BME280;8384;47.996;7.786;2022-09-12T08:31:57;98798.72;;;18.18;67.72
16544;BME280;8384;47.996;7.786;2022-09-12T08:34:23;98795.31;;;18.80;65.92
16544;BME280;8384;47.996;7.786;2022-09-12T08:36:49;98788.53;;;18.64;64.41
16544;BME280;8384;47.996;7.786;2022-09-12T08:39:15;98794.25;;;18.44;65.48
16544;BME280;8384;47.996;7.786;2022-09-12T08:41:45;98789.53;;;18.91;62.84
16544;BME280;8384;47.996;7.786;2022-09-12T08:53:02;98813.22;;;18.97;64.75
16544;BME280;8384;47.996;7.786;2022-09-12T08:55:39;98808.63;;;19.24;64.05
16544;BME280;8384;47.996;7.786;2022-09-12T08:58:26;98802.25;;;18.32;66.35
16544;BME280;8384;47.996;7.786;2022-09-12T09:06:47;98796.81;;;19.72;62.22
16544;BME280;8384;47.996;7.786;2022-09-12T09:09:29;98798.56;;;19.59;62.19
16544;BME280;8384;47.996;7.786;2022-09-12T09:12:24;98795.34;;;19.75;60.02
16544;BME280;8384;47.996;7.786;2022-09-12T09:15:15;98788.97;;;19.74;60.37
16544;BME280;8384;47.996;7.786;2022-09-12T09:18:03;98754.06;;;19.24;61.02
16544;BME280;8384;47.996;7.786;2022-09-12T09:20:48;98770.31;;;20.15;59.48
16544;BME280;8384;47.996;7.786;2022-09-12T09:23:33;98780.81;;;20.89;57.70
16544;BME280;8384;47.996;7.786;2022-09-12T09:26:19;98783.50;;;21.15;57.40
16544;BME280;8384;47.996;7.786;2022-09-12T09:29:21;98782.44;;;20.55;56.97
16544;BME280;8384;47.996;7.786;2022-09-12T09:31:48;98782.91;;;20.92;56.54
16544;BME280;8384;47.996;7.786;2022-09-12T09:34:21;98729.19;;;20.35;56.37
16544;BME280;8384;47.996;7.786;2022-09-12T09:37:15;98781.69;;;21.19;57.07
16544;BME280;8384;47.996;7.786;2022-09-12T09:39:51;98755.09;;;21.09;57.71
16544;BME280;8384;47.996;7.786;2022-09-12T09:44:55;98785.66;;;21.57;56.74
16544;BME280;8384;47.996;7.786;2022-09-12T09:47:23;98755.84;;;21.27;56.77
16544;BME280;8384;47.996;7.786;2022-09-12T09:49:48;98767.00;;;21.10;57.80
16544;BME280;8384;47.996;7.786;2022-09-12T09:52:15;98772.25;;;21.11;57.60
16544;BME280;8384;47.996;7.786;2022-09-12T09:54:46;98747.28;;;21.33;57.31
16544;BME280;8384;47.996;7.786;2022-09-12T09:59:58;98769.16;;;21.04;56.74
16544;BME280;8384;47.996;7.786;2022-09-12T10:02:24;98768.47;;;21.16;56.82
16544;BME280;8384;47.996;7.786;2022-09-12T10:04:56;98750.78;;;21.21;56.21
16544;BME280;8384;47.996;7.786;2022-09-12T10:07:23;98760.84;;;21.43;55.65
16544;BME280;8384;47.996;7.786;2022-09-12T10:10:16;98764.47;;;21.73;54.66
16544;BME280;8384;47.996;7.786;2022-09-12T10:12:42;98762.53;;;21.74;52.65
16544;BME280;8384;47.996;7.786;2022-09-12T10:15:23;98758.28;;;22.40;51.54
16544;BME280;8384;47.996;7.786;2022-09-12T10:17:51;98745.94;;;22.71;49.80
16544;BME280;8384;47.996;7.786;2022-09-12T10:20:37;98766.19;;;22.93;47.58
16544;BME280;8384;47.996;7.786;2022-09-12T10:23:23;98742.38;;;22.83;47.77
16544;BME280;8384;47.996;7.786;2022-09-12T10:25:56;98766.44;;;23.34;46.44
16544;BME280;8384;47.996;7.786;2022-09-12T10:28:27;98755.06;;;23.89;46.13
16544;BME280;8384;47.996;7.786;2022-09-12T10:30:55;98743.09;;;23.51;46.84
16544;BME280;8384;47.996;7.786;2022-09-12T10:33:22;98744.03;;;23.43;47.77
16544;BME280;8384;47.996;7.786;2022-09-12T10:35:51;98747.72;;;23.47;47.19
16544;BME280;8384;47.996;7.786;2022-09-12T10:38:27;98736.22;;;23.36;47.42
16544;BME280;8384;47.996;7.786;2022-09-12T10:41:02;98748.53;;;23.85;46.81
16544;BME280;8384;47.996;7.786;2022-09-12T10:43:36;98757.38;;;23.25;47.01
16544;BME280;8384;47.996;7.786;2022-09-12T10:48:45;98746.69;;;23.76;46.52
16544;BME280;8384;47.996;7.786;2022-09-12T10:51:26;98752.94;;;24.10;45.99
16544;BME280;8384;47.996;7.786;2022-09-12T10:53:56;98751.88;;;24.27;44.72
16544;BME280;8384;47.996;7.786;2022-09-12T10:56:28;98746.75;;;24.30;44.90
16544;BME280;8384;47.996;7.786;2022-09-12T11:01:48;98748.16;;;24.93;44.31
16544;BME280;8384;47.996;7.786;2022-09-12T11:07:39;98743.31;;;25.06;43.55
16544;BME280;8384;47.996;7.786;2022-09-12T11:10:38;98744.94;;;24.78;44.75
16544;BME280;8384;47.996;7.786;2022-09-12T11:16:38;98739.63;;;24.73;44.86
16544;BME280;8384;47.996;7.786;2022-09-12T11:19:36;98732.13;;;25.22;43.20
16544;BME280;8384;47.996;7.786;2022-09-12T11:30:06;98735.06;;;26.88;37.70
16544;BME280;8384;47.996;7.786;2022-09-12T11:32:57;98725.34;;;26.42;38.65
16544;BME280;8384;47.996;7.786;2022-09-12T11:35:32;98726.81;;;26.16;39.94
16544;BME280;8384;47.996;7.786;2022-09-12T11:40:54;98715.97;;;25.99;40.09
16544;BME280;8384;47.996;7.786;2022-09-12T11:43:41;98707.13;;;25.61;40.63
16544;BME280;8384;47.996;7.786;2022-09-12T11:46:27;98684.66;;;25.25;40.99
16544;BME280;8384;47.996;7.786;2022-09-12T11:48:57;98698.47;;;25.50;41.33
16544;BME280;8384;47.996;7.786;2022-09-12T11:51:32;98691.34;;;25.37;39.49
16544;BME280;8384;47.996;7.786;2022-09-12T11:54:20;98686.81;;;25.32;40.56
16544;BME280;8384;47.996;7.786;2022-09-12T11:56:50;98684.47;;;25.34;39.68
16544;BME280;8384;47.996;7.786;2022-09-12T11:59:32;98678.31;;;25.77;40.28
16544;BME280;8384;47.996;7.786;2022-09-12T12:02:00;98661.84;;;25.75;39.40
16544;BME280;8384;47.996;7.786;2022-09-12T12:04:40;98681.56;;;25.79;39.47
16544;BME280;8384;47.996;7.786;2022-09-12T12:07:10;98674.44;;;25.65;39.93
16544;BME280;8384;47.996;7.786;2022-09-12T12:09:45;98663.75;;;25.71;40.09
16544;BME280;8384;47.996;7.786;2022-09-12T12:12:17;98675.13;;;25.78;40.09
16544;BME280;8384;47.996;7.786;2022-09-12T12:14:47;98666.69;;;25.94;40.58
16544;BME280;8384;47.996;7.786;2022-09-12T12:17:22;98672.25;;;25.74;40.29
16544;BME280;8384;47.996;7.786;2022-09-12T12:19:57;98658.66;;;25.93;40.65
16544;BME280;8384;47.996;7.786;2022-09-12T12:22:23;98673.16;;;25.98;41.08
16544;BME280;8384;47.996;7.786;2022-09-12T12:27:49;98671.38;;;25.90;40.45
16544;BME280;8384;47.996;7.786;2022-09-12T12:32:59;98633.34;;;25.89;40.54
16544;BME280;8384;47.996;7.786;2022-09-12T12:37:59;98639.84;;;25.93;40.20
16544;BME280;8384;47.996;7.786;2022-09-12T12:40:26;98653.16;;;26.16;39.96
16544;BME280;8384;47.996;7.786;2022-09-12T12:42:58;98658.59;;;26.48;39.55
16544;BME280;8384;47.996;7.786;2022-09-12T12:47:51;98648.63;;;26.93;37.40
16544;BME280;8384;47.996;7.786;2022-09-12T12:52:53;98640.84;;;26.83;38.61
16544;BME280;8384;47.996;7.786;2022-09-12T12:57:59;98622.06;;;26.64;38.83
16544;BME280;8384;47.996;7.786;2022-09-12T13:00:36;98625.50;;;26.34;38.75
16544;BME280;8384;47.996;7.786;2022-09-12T13:05:36;98629.41;;;26.29;39.74
16544;BME280;8384;47.996;7.786;2022-09-12T13:08:08;98621.44;;;26.98;37.63
16544;BME280;8384;47.996;7.786;2022-09-12T13:10:35;98624.50;;;26.89;37.78
16544;BME280;8384;47.996;7.786;2022-09-12T13:13:03;98624.44;;;27.35;36.87
16544;BME280;8384;47.996;7.786;2022-09-12T13:18:04;98625.28;;;26.66;37.74
16544;BME280;8384;47.996;7.786;2022-09-12T13:20:33;98609.66;;;26.88;37.90
16544;BME280;8384;47.996;7.786;2022-09-12T13:23:02;98619.44;;;26.75;39.60
16544;BME280;8384;47.996;7.786;2022-09-12T13:25:32;98623.06;;;26.99;37.95
16544;BME280;8384;47.996;7.786;2022-09-12T13:30:31;98614.13;;;27.70;35.92
16544;BME280;8384;47.996;7.786;2022-09-12T13:33:04;98603.41;;;27.22;33.92
16544;BME280;8384;47.996;7.786;2022-09-12T13:38:25;98608.84;;;26.64;35.39
16544;BME280;8384;47.996;7.786;2022-09-12T13:41:24;98588.66;;;26.55;35.58
16544;BME280;8384;47.996;7.786;2022-09-12T13:43:54;98579.34;;;26.94;34.66
16544;BME280;8384;47.996;7.786;2022-09-12T13:46:28;98597.72;;;27.45;34.34
16544;BME280;8384;47.996;7.786;2022-09-12T13:48:59;98580.16;;;27.21;34.36
16544;BME280;8384;47.996;7.786;2022-09-12T13:51:28;98587.53;;;27.91;32.91
16544;BME280;8384;47.996;7.786;2022-09-12T13:53:57;98595.91;;;28.18;32.11
16544;BME280;8384;47.996;7.786;2022-09-12T13:56:24;98589.06;;;27.84;32.01
16544;BME280;8384;47.996;7.786;2022-09-12T13:58:58;98597.81;;;28.85;32.41
16544;BME280;8384;47.996;7.786;2022-09-12T14:01:36;98583.66;;;29.27;29.95
16544;BME280;8384;47.996;7.786;2022-09-12T14:04:13;98573.66;;;28.39;31.92
16544;BME280;8384;47.996;7.786;2022-09-12T14:06:59;98579.88;;;28.59;31.73
16544;BME280;8384;47.996;7.786;2022-09-12T14:09:31;98574.88;;;28.42;30.94
16544;BME280;8384;47.996;7.786;2022-09-12T14:11:58;98566.56;;;27.50;27.82
16544;BME280;8384;47.996;7.786;2022-09-12T14:14:36;98568.50;;;28.90;27.30
16544;BME280;8384;47.996;7.786;2022-09-12T14:17:27;98568.94;;;28.51;31.03
16544;BME280;8384;47.996;7.786;2022-09-12T14:19:54;98568.81;;;29.33;26.93
16544;BME280;8384;47.996;7.786;2022-09-12T14:22:24;98559.88;;;29.91;25.82
16544;BME280;8384;47.996;7.786;2022-09-12T14:24:52;98559.66;;;29.47;26.10
16544;BME280;8384;47.996;7.786;2022-09-12T14:27:21;98566.06;;;29.37;26.20
16544;BME280;8384;47.996;7.786;2022-09-12T14:30:00;98556.16;;;29.69;25.92
16544;BME280;8384;47.996;7.786;2022-09-12T14:32:26;98549.03;;;29.23;27.41
16544;BME280;8384;47.996;7.786;2022-09-12T14:37:36;98546.91;;;29.05;28.21
16544;BME280;8384;47.996;7.786;2022-09-12T14:40:03;98552.03;;;29.48;28.08
16544;BME280;8384;47.996;7.786;2022-09-12T14:42:30;98540.94;;;29.95;27.95
16544;BME280;8384;47.996;7.786;2022-09-12T14:45:03;98540.63;;;30.07;27.18
16544;BME280;8384;47.996;7.786;2022-09-12T14:47:39;98541.72;;;29.81;28.28
16544;BME280;8384;47.996;7.786;2022-09-12T14:50:17;98539.91;;;29.37;28.37
16544;BME280;8384;47.996;7.786;2022-09-12T14:52:44;98535.00;;;29.26;27.96
16544;BME280;8384;47.996;7.786;2022-09-12T14:55:27;98525.88;;;29.47;28.15
16544;BME280;8384;47.996;7.786;2022-09-12T15:01:01;98537.09;;;31.19;26.36
16544;BME280;8384;47.996;7.786;2022-09-12T15:05:56;98526.56;;;31.38;25.81
16544;BME280;8384;47.996;7.786;2022-09-12T15:08:23;98534.50;;;31.68;25.13
16544;BME280;8384;47.996;7.786;2022-09-12T15:10:48;98530.06;;;32.49;24.66
16544;BME280;8384;47.996;7.786;2022-09-12T15:13:19;98525.09;;;32.64;23.99
16544;BME280;8384;47.996;7.786;2022-09-12T15:15:53;98509.34;;;32.63;24.30
16544;BME280;8384;47.996;7.786;2022-09-12T15:18:20;98525.63;;;32.52;24.71
16544;BME280;8384;47.996;7.786;2022-09-12T15:20:48;98531.44;;;33.25;24.03